sensor_id;sensor_type;location;lat;lon;timestamp;pressure;altitude;pressure_sealevel;temperature;humidity
3096;BME280;1558;42.700;23.360;2023-12-22T00:01:13;93876.44;;;0.39;100.00
3096;BME280;1558;42.700;23.360;2023-12-22T00:03:42;93876.19;;;0.27;100.00
3096;BME280;1558;42.700;23.360;2023-12-22T00:06:14;93841.50;;;0.15;100.00
3096;BME280;1558;42.700;23.360;2023-12-22T00:08:42;93856.56;;;0.28;100.00
3096;BME280;1558;42.700;23.360;2023-12-22T00:11:10;93838.94;;;0.24;100.00
3096;BME280;1558;42.700;23.360;2023-12-22T00:13:38;93868.56;;;0.26;100.00
3096;BME280;1558;42.700;23.360;2023-12-22T00:16:06;93835.06;;;0.08;100.00
3096;BME280;1558;42.700;23.360;2023-12-22T00:18:36;93845.25;;;0.14;100.00
3096;BME280;1558;42.700;23.360;2023-12-22T00:21:04;93843.69;;;0.13;100.00
3096;BME280;1558;42.700;23.360;2023-12-22T00:23:33;93833.09;;;0.13;100.00
3096;BME280;1558;42.700;23.360;2023-12-22T00:26:03;93775.69;;;-0.14;100.00
3096;BME280;1558;42.700;23.360;2023-12-22T00:28:31;93828.91;;;0.21;100.00
3096;BME280;1558;42.700;23.360;2023-12-22T00:30:59;93823.78;;;0.24;100.00
3096;BME280;1558;42.700;23.360;2023-12-22T00:33:27;93822.22;;;0.23;100.00
3096;BME280;1558;42.700;23.360;2023-12-22T00:35:56;93822.28;;;0.32;100.00
3096;BME280;1558;42.700;23.360;2023-12-22T00:38:25;93814.16;;;0.28;100.00
3096;BME280;1558;42.700;23.360;2023-12-22T00:40:55;93807.03;;;0.37;100.00
3096;BME280;1558;42.700;23.360;2023-12-22T00:43:23;93755.09;;;0.06;100.00
3096;BME280;1558;42.700;23.360;2023-12-22T00:45:50;93802.81;;;0.36;100.00
3096;BME280;1558;42.700;23.360;2023-12-22T00:48:19;93800.63;;;0.38;100.00
3096;BME280;1558;42.700;23.360;2023-12-22T00:50:47;93780.53;;;0.37;100.00
3096;BME280;1558;42.700;23.360;2023-12-22T00:53:15;93801.53;;;0.64;100.00
3096;BME280;1558;42.700;23.360;2023-12-22T00:55:43;93785.94;;;0.72;100.00
3096;BME280;1558;42.700;23.360;2023-12-22T00:58:14;93789.59;;;0.84;100.00
3096;BME280;1558;42.700;23.360;2023-12-22T01:00:42;93789.91;;;0.83;100.00
3096;BME280;1558;42.700;23.360;2023-12-22T01:03:10;93776.63;;;0.83;100.00
3096;BME280;1558;42.700;23.360;2023-12-22T01:05:38;93783.06;;;0.90;100.00
3096;BME280;1558;42.700;23.360;2023-12-22T01:08:07;93789.47;;;0.98;100.00
3096;BME280;1558;42.700;23.360;2023-12-22T01:10:35;93782.28;;;0.98;100.00
3096;BME280;1558;42.700;23.360;2023-12-22T01:13:03;93783.84;;;0.99;100.00
3096;BME280;1558;42.700;23.360;2023-12-22T01:15:33;93790.25;;;0.98;100.00
3096;BME280;1558;42.700;23.360;2023-12-22T01:18:01;93785.72;;;0.99;100.00
3096;BME280;1558;42.700;23.360;2023-12-22T01:20:30;93778.88;;;1.06;100.00
3096;BME280;1558;42.700;23.360;2023-12-22T01:22:58;93778.69;;;1.03;100.00
3096;BME280;1558;42.700;23.360;2023-12-22T01:25:27;93775.44;;;1.06;100.00
3096;BME280;1558;42.700;23.360;2023-12-22T01:27:55;93760.72;;;0.83;100.00
3096;BME280;1558;42.700;23.360;2023-12-22T01:30:24;93762.13;;;0.89;100.00
3096;BME280;1558;42.700;23.360;2023-12-22T01:32:53;93720.28;;;0.77;100.00
3096;BME280;1558;42.700;23.360;2023-12-22T01:35:22;93772.16;;;1.09;100.00
3096;BME280;1558;42.700;23.360;2023-12-22T01:37:50;93767.19;;;1.16;100.00
3096;BME280;1558;42.700;23.360;2023-12-22T01:40:18;93757.03;;;1.18;100.00
3096;BME280;1558;42.700;23.360;2023-12-22T01:42:46;93752.19;;;1.28;100.00
3096;BME280;1558;42.700;23.360;2023-12-22T01:45:15;93754.84;;;1.20;100.00
3096;BME280;1558;42.700;23.360;2023-12-22T01:47:43;93755.59;;;1.03;100.00
3096;BME280;1558;42.700;23.360;2023-12-22T01:50:15;93735.41;;;0.77;100.00
3096;BME280;1558;42.700;23.360;2023-12-22T01:52:44;93739.59;;;0.69;100.00
3096;BME280;1558;42.700;23.360;2023-12-22T01:55:13;93720.53;;;0.58;100.00
3096;BME280;1558;42.700;23.360;2023-12-22T01:57:44;93737.09;;;0.64;100.00
3096;BME280;1558;42.700;23.360;2023-12-22T02:00:15;93735.84;;;0.61;100.00
3096;BME280;1558;42.700;23.360;2023-12-22T02:02:44;93737.13;;;0.73;100.00
3096;BME280;1558;42.700;23.360;2023-12-22T02:05:14;93712.59;;;0.58;100.00
3096;BME280;1558;42.700;23.360;2023-12-22T02:07:43;93735.97;;;0.56;100.00
3096;BME280;1558;42.700;23.360;2023-12-22T02:10:12;93739.75;;;0.64;100.00
3096;BME280;1558;42.700;23.360;2023-12-22T02:12:40;93740.50;;;0.56;100.00
3096;BME280;1558;42.700;23.360;2023-12-22T02:15:09;93738.88;;;0.38;100.00
3096;BME280;1558;42.700;23.360;2023-12-22T02:17:43;93717.41;;;0.17;100.00
3096;BME280;1558;42.700;23.360;2023-12-22T02:20:14;93735.25;;;0.34;100.00
3096;BME280;1558;42.700;23.360;2023-12-22T02:22:44;93716.47;;;0.13;100.00
3096;BME280;1558;42.700;23.360;2023-12-22T02:25:12;93738.38;;;0.27;100.00
3096;BME280;1558;42.700;23.360;2023-12-22T02:27:45;93741.94;;;0.31;100.00
3096;BME280;1558;42.700;23.360;2023-12-22T02:30:22;93627.38;;;-0.44;100.00
3096;BME280;1558;42.700;23.360;2023-12-22T02:32:56;93727.69;;;0.10;100.00
3096;BME280;1558;42.700;23.360;2023-12-22T02:35:28;93677.78;;;-0.27;100.00
3096;BME280;1558;42.700;23.360;2023-12-22T02:37:59;93687.31;;;-0.26;100.00
3096;BME280;1558;42.700;23.360;2023-12-22T02:40:30;93731.72;;;0.08;100.00
3096;BME280;1558;42.700;23.360;2023-12-22T02:42:59;93734.81;;;0.01;100.00
3096;BME280;1558;42.700;23.360;2023-12-22T02:45:28;93704.03;;;-0.17;100.00
3096;BME280;1558;42.700;23.360;2023-12-22T02:47:57;93722.28;;;-0.07;100.00
3096;BME280;1558;42.700;23.360;2023-12-22T02:50:25;93712.78;;;-0.08;100.00
3096;BME280;1558;42.700;23.360;2023-12-22T02:52:54;93711.69;;;-0.07;100.00
3096;BME280;1558;42.700;23.360;2023-12-22T02:55:23;93697.09;;;0.04;100.00
3096;BME280;1558;42.700;23.360;2023-12-22T02:57:52;93703.34;;;0.08;100.00
3096;BME280;1558;42.700;23.360;2023-12-22T03:00:20;93682.13;;;-0.01;100.00
3096;BME280;1558;42.700;23.360;2023-12-22T03:02:48;93702.97;;;0.23;100.00
3096;BME280;1558;42.700;23.360;2023-12-22T03:05:16;93705.34;;;0.33;100.00
3096;BME280;1558;42.700;23.360;2023-12-22T03:07:44;93703.50;;;0.42;100.00
3096;BME280;1558;42.700;23.360;2023-12-22T03:10:13;93690.25;;;0.42;100.00
3096;BME280;1558;42.700;23.360;2023-12-22T03:12:43;93689.66;;;0.54;100.00
3096;BME280;1558;42.700;23.360;2023-12-22T03:15:11;93698.22;;;0.59;100.00
3096;BME280;1558;42.700;23.360;2023-12-22T03:17:39;93700.72;;;0.64;100.00
3096;BME280;1558;42.700;23.360;2023-12-22T03:20:08;93710.25;;;0.65;100.00
3096;BME280;1558;42.700;23.360;2023-12-22T03:22:36;93677.78;;;0.51;100.00
3096;BME280;1558;42.700;23.360;2023-12-22T03:25:05;93671.34;;;0.35;100.00
3096;BME280;1558;42.700;23.360;2023-12-22T03:27:34;93651.34;;;0.29;100.00
3096;BME280;1558;42.700;23.360;2023-12-22T03:30:05;93698.22;;;0.59;100.00
3096;BME280;1558;42.700;23.360;2023-12-22T03:32:33;93705.09;;;0.60;100.00
3096;BME280;1558;42.700;23.360;2023-12-22T03:35:01;93705.88;;;0.61;100.00
3096;BME280;1558;42.700;23.360;2023-12-22T03:37:30;93684.03;;;0.55;100.00
3096;BME280;1558;42.700;23.360;2023-12-22T03:39:58;93687.00;;;0.62;100.00
3096;BME280;1558;42.700;23.360;2023-12-22T03:42:26;93662.81;;;0.47;100.00
3096;BME280;1558;42.700;23.360;2023-12-22T03:44:54;93679.97;;;0.49;100.00
3096;BME280;1558;42.700;23.360;2023-12-22T03:47:24;93685.13;;;0.54;100.00
3096;BME280;1558;42.700;23.360;2023-12-22T03:49:52;93695.88;;;0.58;100.00
3096;BME280;1558;42.700;23.360;2023-12-22T03:52:20;93682.28;;;0.42;100.00
3096;BME280;1558;42.700;23.360;2023-12-22T03:54:49;93639.16;;;0.11;100.00
3096;BME280;1558;42.700;23.360;2023-12-22T03:57:17;93696.66;;;0.50;100.00
3096;BME280;1558;42.700;23.360;2023-12-22T03:59:45;93688.53;;;0.46;100.00
3096;BME280;1558;42.700;23.360;2023-12-22T04:02:13;93688.72;;;0.50;100.00
3096;BME280;1558;42.700;23.360;2023-12-22T04:04:42;93689.50;;;0.67;100.00
3096;BME280;1558;42.700;23.360;2023-12-22T04:07:11;93680.47;;;0.68;100.00
3096;BME280;1558;42.700;23.360;2023-12-22T04:09:39;93683.91;;;0.78;100.00
3096;BME280;1558;42.700;23.360;2023-12-22T04:12:07;93633.91;;;0.45;100.00
3096;BME280;1558;42.700;23.360;2023-12-22T04:14:35;93686.28;;;0.96;100.00
3096;BME280;1558;42.700;23.360;2023-12-22T04:17:04;93675.66;;;0.96;100.00
3096;BME280;1558;42.700;23.360;2023-12-22T04:19:32;93690.19;;;1.07;100.00
3096;BME280;1558;42.700;23.360;2023-12-22T04:22:02;93697.22;;;1.03;100.00
3096;BME280;1558;42.700;23.360;2023-12-22T04:24:30;93692.06;;;1.07;100.00
3096;BME280;1558;42.700;23.360;2023-12-22T04:26:58;93686.13;;;1.10;100.00
3096;BME280;1558;42.700;23.360;2023-12-22T04:29:29;93684.56;;;1.09;100.00
3096;BME280;1558;42.700;23.360;2023-12-22T04:31:57;93668.00;;;1.12;100.00
3096;BME280;1558;42.700;23.360;2023-12-22T04:34:25;93657.09;;;1.22;100.00
3096;BME280;1558;42.700;23.360;2023-12-22T04:36:53;93676.59;;;1.34;100.00
3096;BME280;1558;42.700;23.360;2023-12-22T04:39:23;93672.69;;;1.32;100.00
3096;BME280;1558;42.700;23.360;2023-12-22T04:41:53;93667.38;;;1.32;100.00
3096;BME280;1558;42.700;23.360;2023-12-22T04:44:21;93672.22;;;1.47;100.00
3096;BME280;1558;42.700;23.360;2023-12-22T04:46:49;93618.66;;;1.36;100.00
3096;BME280;1558;42.700;23.360;2023-12-22T04:49:17;93631.09;;;1.62;100.00
3096;BME280;1558;42.700;23.360;2023-12-22T04:51:46;93660.44;;;1.82;100.00
3096;BME280;1558;42.700;23.360;2023-12-22T04:54:14;93662.97;;;1.70;100.00
3096;BME280;1558;42.700;23.360;2023-12-22T04:56:43;93639.88;;;1.54;100.00
3096;BME280;1558;42.700;23.360;2023-12-22T04:59:12;93660.16;;;1.67;100.00
3096;BME280;1558;42.700;23.360;2023-12-22T05:01:40;93665.31;;;1.63;100.00
3096;BME280;1558;42.700;23.360;2023-12-22T05:04:09;93647.34;;;1.60;100.00
3096;BME280;1558;42.700;23.360;2023-12-22T05:06:38;93640.78;;;1.66;100.00
3096;BME280;1558;42.700;23.360;2023-12-22T05:09:06;93644.22;;;1.58;100.00
3096;BME280;1558;42.700;23.360;2023-12-22T05:11:34;93636.84;;;1.72;100.00
3096;BME280;1558;42.700;23.360;2023-12-22T05:14:06;93645.00;;;1.76;100.00
3096;BME280;1558;42.700;23.360;2023-12-22T05:16:34;93638.88;;;1.75;100.00
3096;BME280;1558;42.700;23.360;2023-12-22T05:19:02;93618.47;;;1.59;100.00
3096;BME280;1558;42.700;23.360;2023-12-22T05:21:31;93648.09;;;1.69;100.00
3096;BME280;1558;42.700;23.360;2023-12-22T05:23:59;93642.03;;;1.69;100.00
3096;BME280;1558;42.700;23.360;2023-12-22T05:26:28;93654.53;;;1.68;100.00
3096;BME280;1558;42.700;23.360;2023-12-22T05:28:57;93655.78;;;1.71;100.00
3096;BME280;1558;42.700;23.360;2023-12-22T05:31:26;93643.44;;;1.58;100.00
3096;BME280;1558;42.700;23.360;2023-12-22T05:33:55;93627.53;;;1.49;100.00
3096;BME280;1558;42.700;23.360;2023-12-22T05:36:23;93648.56;;;1.71;100.00
3096;BME280;1558;42.700;23.360;2023-12-22T05:38:52;93594.72;;;1.45;100.00
3096;BME280;1558;42.700;23.360;2023-12-22T05:41:20;93605.97;;;1.51;100.00
3096;BME280;1558;42.700;23.360;2023-12-22T05:43:48;93591.97;;;1.33;100.00
3096;BME280;1558;42.700;23.360;2023-12-22T05:46:17;93646.44;;;1.56;100.00
3096;BME280;1558;42.700;23.360;2023-12-22T05:48:47;93647.69;;;1.59;100.00
3096;BME280;1558;42.700;23.360;2023-12-22T05:51:15;93650.75;;;1.69;100.00
3096;BME280;1558;42.700;23.360;2023-12-22T05:53:43;93651.69;;;1.82;100.00
3096;BME280;1558;42.700;23.360;2023-12-22T05:56:18;93627.19;;;1.68;100.00
3096;BME280;1558;42.700;23.360;2023-12-22T05:58:48;93640.25;;;1.90;100.00
3096;BME280;1558;42.700;23.360;2023-12-22T06:01:16;93636.81;;;1.89;100.00
3096;BME280;1558;42.700;23.360;2023-12-22T06:03:47;93648.03;;;1.95;100.00
3096;BME280;1558;42.700;23.360;2023-12-22T06:06:15;93651.00;;;1.93;100.00
3096;BME280;1558;42.700;23.360;2023-12-22T06:08:43;93650.09;;;1.89;100.00
3096;BME280;1558;42.700;23.360;2023-12-22T06:11:13;93649.63;;;1.87;100.00
3096;BME280;1558;42.700;23.360;2023-12-22T06:13:41;93594.84;;;1.57;100.00
3096;BME280;1558;42.700;23.360;2023-12-22T06:16:13;93636.97;;;1.84;100.00
3096;BME280;1558;42.700;23.360;2023-12-22T06:18:42;93610.78;;;1.66;100.00
3096;BME280;1558;42.700;23.360;2023-12-22T06:21:11;93648.66;;;2.00;100.00
3096;BME280;1558;42.700;23.360;2023-12-22T06:23:42;93632.69;;;2.00;100.00
3096;BME280;1558;42.700;23.360;2023-12-22T06:26:11;93640.72;;;2.21;100.00
3096;BME280;1558;42.700;23.360;2023-12-22T06:28:40;93630.78;;;2.10;100.00
3096;BME280;1558;42.700;23.360;2023-12-22T06:31:08;93646.19;;;2.25;100.00
3096;BME280;1558;42.700;23.360;2023-12-22T06:33:47;93639.97;;;2.21;100.00
3096;BME280;1558;42.700;23.360;2023-12-22T06:36:22;93654.06;;;2.13;100.00
3096;BME280;1558;42.700;23.360;2023-12-22T06:38:50;93656.84;;;2.25;100.00
3096;BME280;1558;42.700;23.360;2023-12-22T06:41:21;93656.50;;;2.35;100.00
3096;BME280;1558;42.700;23.360;2023-12-22T06:43:55;93666.13;;;2.48;100.00
3096;BME280;1558;42.700;23.360;2023-12-22T06:46:27;93666.03;;;2.65;100.00
3096;BME280;1558;42.700;23.360;2023-12-22T06:48:57;93606.91;;;2.30;100.00
3096;BME280;1558;42.700;23.360;2023-12-22T06:51:32;93660.06;;;2.68;100.00
3096;BME280;1558;42.700;23.360;2023-12-22T06:54:02;93671.25;;;2.82;100.00
3096;BME280;1558;42.700;23.360;2023-12-22T06:56:34;93655.81;;;2.76;100.00
3096;BME280;1558;42.700;23.360;2023-12-22T06:59:02;93657.94;;;2.82;100.00
3096;BME280;1558;42.700;23.360;2023-12-22T07:01:32;93659.03;;;2.81;100.00
3096;BME280;1558;42.700;23.360;2023-12-22T07:04:02;93644.63;;;2.82;100.00
3096;BME280;1558;42.700;23.360;2023-12-22T07:06:33;93663.34;;;2.94;100.00
3096;BME280;1558;42.700;23.360;2023-12-22T07:09:32;93525.72;;;2.03;100.00
3096;BME280;1558;42.700;23.360;2023-12-22T07:12:01;93662.69;;;2.97;100.00
3096;BME280;1558;42.700;23.360;2023-12-22T07:14:31;93666.19;;;2.89;100.00
3096;BME280;1558;42.700;23.360;2023-12-22T07:17:01;93668.06;;;2.89;100.00
3096;BME280;1558;42.700;23.360;2023-12-22T07:19:29;93675.69;;;2.99;100.00
3096;BME280;1558;42.700;23.360;2023-12-22T07:22:00;93677.81;;;3.05;100.00
3096;BME280;1558;42.700;23.360;2023-12-22T07:24:29;93671.09;;;3.08;100.00
3096;BME280;1558;42.700;23.360;2023-12-22T07:26:57;93675.16;;;3.05;100.00
3096;BME280;1558;42.700;23.360;2023-12-22T07:29:25;93688.56;;;3.17;100.00
3096;BME280;1558;42.700;23.360;2023-12-22T07:31:56;93686.22;;;3.16;100.00
3096;BME280;1558;42.700;23.360;2023-12-22T07:34:26;93671.41;;;3.06;100.00
3096;BME280;1558;42.700;23.360;2023-12-22T07:36:56;93658.56;;;3.08;100.00
3096;BME280;1558;42.700;23.360;2023-12-22T07:39:34;93672.91;;;3.16;100.00
3096;BME280;1558;42.700;23.360;2023-12-22T07:42:04;93670.38;;;3.19;100.00
3096;BME280;1558;42.700;23.360;2023-12-22T07:44:33;93687.78;;;3.37;100.00
3096;BME280;1558;42.700;23.360;2023-12-22T07:47:02;93691.81;;;3.43;100.00
3096;BME280;1558;42.700;23.360;2023-12-22T07:49:31;93686.72;;;3.51;100.00
3096;BME280;1558;42.700;23.360;2023-12-22T07:52:00;93678.16;;;3.24;100.00
3096;BME280;1558;42.700;23.360;2023-12-22T07:54:30;93703.00;;;3.37;100.00
3096;BME280;1558;42.700;23.360;2023-12-22T07:57:02;93712.22;;;3.39;100.00
3096;BME280;1558;42.700;23.360;2023-12-22T07:59:30;93707.72;;;3.31;100.00
3096;BME280;1558;42.700;23.360;2023-12-22T08:01:59;93718.13;;;3.45;100.00
3096;BME280;1558;42.700;23.360;2023-12-22T08:04:28;93722.41;;;3.58;100.00
3096;BME280;1558;42.700;23.360;2023-12-22T08:06:56;93719.66;;;3.67;100.00
3096;BME280;1558;42.700;23.360;2023-12-22T08:09:24;93712.31;;;3.64;100.00
3096;BME280;1558;42.700;23.360;2023-12-22T08:11:52;93736.50;;;3.79;100.00
3096;BME280;1558;42.700;23.360;2023-12-22T08:14:24;93738.28;;;3.75;100.00
3096;BME280;1558;42.700;23.360;2023-12-22T08:16:52;93743.91;;;3.74;100.00
3096;BME280;1558;42.700;23.360;2023-12-22T08:19:22;93744.59;;;3.71;100.00
3096;BME280;1558;42.700;23.360;2023-12-22T08:21:53;93730.53;;;3.62;100.00
3096;BME280;1558;42.700;23.360;2023-12-22T08:24:22;93708.50;;;3.53;100.00
3096;BME280;1558;42.700;23.360;2023-12-22T08:26:52;93740.41;;;3.82;100.00
3096;BME280;1558;42.700;23.360;2023-12-22T08:29:20;93743.72;;;3.79;100.00
3096;BME280;1558;42.700;23.360;2023-12-22T08:31:50;93747.03;;;3.76;100.00
3096;BME280;1558;42.700;23.360;2023-12-22T08:34:19;93731.13;;;3.67;100.00
3096;BME280;1558;42.700;23.360;2023-12-22T08:36:48;93746.00;;;3.68;100.00
3096;BME280;1558;42.700;23.360;2023-12-22T08:39:17;93742.56;;;3.68;100.00
3096;BME280;1558;42.700;23.360;2023-12-22T08:41:47;93750.16;;;3.78;100.00
3096;BME280;1558;42.700;23.360;2023-12-22T08:44:16;93748.97;;;3.67;100.00
3096;BME280;1558;42.700;23.360;2023-12-22T08:46:44;93737.75;;;3.61;100.00
3096;BME280;1558;42.700;23.360;2023-12-22T08:49:14;93740.34;;;3.70;100.00
3096;BME280;1558;42.700;23.360;2023-12-22T08:51:43;93742.22;;;3.69;100.00
3096;BME280;1558;42.700;23.360;2023-12-22T08:54:11;93745.88;;;3.65;100.00
3096;BME280;1558;42.700;23.360;2023-12-22T08:56:39;93741.78;;;3.67;100.00
3096;BME280;1558;42.700;23.360;2023-12-22T08:59:07;93758.34;;;3.73;100.00
3096;BME280;1558;42.700;23.360;2023-12-22T09:01:36;93745.94;;;3.77;100.00
3096;BME280;1558;42.700;23.360;2023-12-22T09:04:05;93763.28;;;3.83;100.00
3096;BME280;1558;42.700;23.360;2023-12-22T09:06:37;93751.91;;;3.74;100.00
3096;BME280;1558;42.700;23.360;2023-12-22T09:09:06;93760.69;;;3.74;100.00
3096;BME280;1558;42.700;23.360;2023-12-22T09:11:34;93766.63;;;3.80;100.00
3096;BME280;1558;42.700;23.360;2023-12-22T09:14:04;93762.31;;;3.87;100.00
3096;BME280;1558;42.700;23.360;2023-12-22T09:16:35;93769.78;;;3.94;100.00
3096;BME280;1558;42.700;23.360;2023-12-22T09:19:03;93767.16;;;3.85;100.00
3096;BME280;1558;42.700;23.360;2023-12-22T09:21:32;93776.41;;;3.88;100.00
3096;BME280;1558;42.700;23.360;2023-12-22T09:24:02;93769.66;;;3.90;100.00
3096;BME280;1558;42.700;23.360;2023-12-22T09:26:31;93770.97;;;3.84;100.00
3096;BME280;1558;42.700;23.360;2023-12-22T09:29:00;93771.41;;;3.86;100.00
3096;BME280;1558;42.700;23.360;2023-12-22T09:31:28;93767.31;;;3.89;100.00
3096;BME280;1558;42.700;23.360;2023-12-22T09:33:57;93759.91;;;3.94;100.00
3096;BME280;1558;42.700;23.360;2023-12-22T09:36:27;93757.25;;;3.94;100.00
3096;BME280;1558;42.700;23.360;2023-12-22T09:38:55;93764.13;;;3.95;100.00
3096;BME280;1558;42.700;23.360;2023-12-22T09:41:25;93758.25;;;4.02;100.00
3096;BME280;1558;42.700;23.360;2023-12-22T09:43:57;93749.72;;;4.08;100.00
3096;BME280;1558;42.700;23.360;2023-12-22T09:46:27;93756.56;;;4.30;100.00
3096;BME280;1558;42.700;23.360;2023-12-22T09:48:56;93760.34;;;4.29;100.00
3096;BME280;1558;42.700;23.360;2023-12-22T09:51:26;93763.22;;;4.24;100.00
3096;BME280;1558;42.700;23.360;2023-12-22T09:53:56;93761.41;;;4.16;100.00
3096;BME280;1558;42.700;23.360;2023-12-22T09:56:30;93759.66;;;4.20;100.00
3096;BME280;1558;42.700;23.360;2023-12-22T09:58:59;93739.41;;;4.19;100.00
3096;BME280;1558;42.700;23.360;2023-12-22T10:01:28;93741.44;;;4.22;100.00
3096;BME280;1558;42.700;23.360;2023-12-22T10:03:58;93724.56;;;4.30;100.00
3096;BME280;1558;42.700;23.360;2023-12-22T10:06:26;93721.44;;;4.40;100.00
3096;BME280;1558;42.700;23.360;2023-12-22T10:08:55;93729.25;;;4.57;100.00
3096;BME280;1558;42.700;23.360;2023-12-22T10:11:25;93730.81;;;4.58;100.00
3096;BME280;1558;42.700;23.360;2023-12-22T10:13:56;93733.91;;;4.48;100.00
3096;BME280;1558;42.700;23.360;2023-12-22T10:16:25;93724.78;;;4.37;100.00
3096;BME280;1558;42.700;23.360;2023-12-22T10:18:54;93721.78;;;4.39;100.00
3096;BME280;1558;42.700;23.360;2023-12-22T10:21:22;93709.91;;;4.48;100.00
3096;BME280;1558;42.700;23.360;2023-12-22T10:23:51;93715.56;;;4.59;100.00
3096;BME280;1558;42.700;23.360;2023-12-22T10:26:20;93710.78;;;4.52;100.00
3096;BME280;1558;42.700;23.360;2023-12-22T10:28:48;93695.44;;;4.73;100.00
3096;BME280;1558;42.700;23.360;2023-12-22T10:31:18;93695.56;;;5.01;100.00
3096;BME280;1558;42.700;23.360;2023-12-22T10:33:46;93673.47;;;5.16;100.00
3096;BME280;1558;42.700;23.360;2023-12-22T10:36:15;93682.59;;;5.27;100.00
3096;BME280;1558;42.700;23.360;2023-12-22T10:38:44;93682.91;;;5.38;100.00
3096;BME280;1558;42.700;23.360;2023-12-22T10:41:16;93681.97;;;5.58;100.00
3096;BME280;1558;42.700;23.360;2023-12-22T10:43:44;93671.66;;;5.72;100.00
3096;BME280;1558;42.700;23.360;2023-12-22T10:46:13;93662.59;;;5.77;100.00
3096;BME280;1558;42.700;23.360;2023-12-22T10:48:45;93651.00;;;5.85;100.00
3096;BME280;1558;42.700;23.360;2023-12-22T10:51:13;93633.34;;;6.11;100.00
3096;BME280;1558;42.700;23.360;2023-12-22T10:53:42;93634.91;;;6.12;100.00
3096;BME280;1558;42.700;23.360;2023-12-22T10:56:10;93651.25;;;6.39;100.00
3096;BME280;1558;42.700;23.360;2023-12-22T10:58:39;93638.19;;;6.68;100.00
3096;BME280;1558;42.700;23.360;2023-12-22T11:01:08;93630.69;;;6.58;100.00
3096;BME280;1558;42.700;23.360;2023-12-22T11:03:39;93636.56;;;6.33;100.00
3096;BME280;1558;42.700;23.360;2023-12-22T11:06:10;93636.13;;;6.15;100.00
3096;BME280;1558;42.700;23.360;2023-12-22T11:08:44;93633.47;;;5.87;100.00
3096;BME280;1558;42.700;23.360;2023-12-22T11:11:22;93627.91;;;5.80;100.00
3096;BME280;1558;42.700;23.360;2023-12-22T11:13:56;93612.09;;;5.75;100.00
3096;BME280;1558;42.700;23.360;2023-12-22T11:16:27;93599.16;;;6.21;100.00
3096;BME280;1558;42.700;23.360;2023-12-22T11:18:56;93598.28;;;6.98;100.00
3096;BME280;1558;42.700;23.360;2023-12-22T11:21:27;93593.44;;;7.42;100.00
3096;BME280;1558;42.700;23.360;2023-12-22T11:23:56;93596.63;;;7.47;100.00
3096;BME280;1558;42.700;23.360;2023-12-22T11:26:25;93598.19;;;7.29;100.00
3096;BME280;1558;42.700;23.360;2023-12-22T11:28:53;93599.94;;;7.60;100.00
3096;BME280;1558;42.700;23.360;2023-12-22T11:31:23;93598.19;;;7.68;100.00
3096;BME280;1558;42.700;23.360;2023-12-22T11:33:55;93608.19;;;7.32;100.00
3096;BME280;1558;42.700;23.360;2023-12-22T11:36:39;93622.66;;;7.28;100.00
3096;BME280;1558;42.700;23.360;2023-12-22T11:39:08;93620.59;;;7.21;100.00
3096;BME280;1558;42.700;23.360;2023-12-22T11:41:37;93632.56;;;6.89;100.00
3096;BME280;1558;42.700;23.360;2023-12-22T11:44:06;93633.59;;;6.69;100.00
3096;BME280;1558;42.700;23.360;2023-12-22T11:46:35;93646.31;;;6.41;100.00
3096;BME280;1558;42.700;23.360;2023-12-22T11:49:04;93646.03;;;6.30;100.00
3096;BME280;1558;42.700;23.360;2023-12-22T11:51:33;93655.47;;;6.08;100.00
3096;BME280;1558;42.700;23.360;2023-12-22T11:54:04;93644.47;;;5.98;100.00
3096;BME280;1558;42.700;23.360;2023-12-22T11:56:52;93635.34;;;5.99;100.00
3096;BME280;1558;42.700;23.360;2023-12-22T11:59:20;93636.00;;;5.96;100.00
3096;BME280;1558;42.700;23.360;2023-12-22T12:01:54;93630.94;;;5.79;100.00
3096;BME280;1558;42.700;23.360;2023-12-22T12:04:23;93631.09;;;5.70;100.00
3096;BME280;1558;42.700;23.360;2023-12-22T12:06:52;93640.22;;;5.69;100.00
3096;BME280;1558;42.700;23.360;2023-12-22T12:09:45;93630.50;;;5.77;100.00
3096;BME280;1558;42.700;23.360;2023-12-22T12:12:13;93632.41;;;5.76;100.00
3096;BME280;1558;42.700;23.360;2023-12-22T12:14:43;93645.03;;;5.64;100.00
3096;BME280;1558;42.700;23.360;2023-12-22T12:17:16;93638.75;;;5.56;100.00
3096;BME280;1558;42.700;23.360;2023-12-22T12:19:47;93625.94;;;5.49;100.00
3096;BME280;1558;42.700;23.360;2023-12-22T12:22:16;93628.75;;;5.41;100.00
3096;BME280;1558;42.700;23.360;2023-12-22T12:24:46;93624.00;;;5.34;100.00
3096;BME280;1558;42.700;23.360;2023-12-22T12:27:18;93622.34;;;5.30;100.00
3096;BME280;1558;42.700;23.360;2023-12-22T12:29:47;93603.97;;;5.28;100.00
3096;BME280;1558;42.700;23.360;2023-12-22T12:32:15;93612.34;;;5.27;100.00
3096;BME280;1558;42.700;23.360;2023-12-22T12:34:44;93615.25;;;5.22;100.00
3096;BME280;1558;42.700;23.360;2023-12-22T12:37:12;93604.34;;;5.15;100.00
3096;BME280;1558;42.700;23.360;2023-12-22T12:39:42;93596.69;;;5.13;100.00
3096;BME280;1558;42.700;23.360;2023-12-22T12:42:15;93596.78;;;5.17;100.00
3096;BME280;1558;42.700;23.360;2023-12-22T12:44:44;93597.25;;;5.07;100.00
3096;BME280;1558;42.700;23.360;2023-12-22T12:47:14;93585.88;;;5.10;100.00
3096;BME280;1558;42.700;23.360;2023-12-22T12:49:44;93587.44;;;5.11;100.00
3096;BME280;1558;42.700;23.360;2023-12-22T12:52:12;93591.84;;;5.19;100.00
3096;BME280;1558;42.700;23.360;2023-12-22T12:54:41;93603.56;;;5.14;100.00
3096;BME280;1558;42.700;23.360;2023-12-22T12:57:15;93607.47;;;5.17;100.00
3096;BME280;1558;42.700;23.360;2023-12-22T12:59:46;93615.72;;;5.12;100.00
3096;BME280;1558;42.700;23.360;2023-12-22T13:02:15;93613.28;;;5.07;100.00
3096;BME280;1558;42.700;23.360;2023-12-22T13:04:44;93619.03;;;5.09;100.00
3096;BME280;1558;42.700;23.360;2023-12-22T13:07:13;93636.28;;;5.11;100.00
3096;BME280;1558;42.700;23.360;2023-12-22T13:09:41;93632.59;;;5.28;100.00
3096;BME280;1558;42.700;23.360;2023-12-22T13:12:12;93621.59;;;5.45;100.00
3096;BME280;1558;42.700;23.360;2023-12-22T13:14:42;93602.41;;;5.55;100.00
3096;BME280;1558;42.700;23.360;2023-12-22T13:17:11;93611.06;;;5.64;100.00
3096;BME280;1558;42.700;23.360;2023-12-22T13:19:40;93625.94;;;5.77;100.00
3096;BME280;1558;42.700;23.360;2023-12-22T13:22:09;93615.75;;;5.83;100.00